createdAt,value
2019-04-04T00:01:25.262Z,1.50
2019-04-04T00:06:16.662Z,2.30
2019-04-04T00:11:08.028Z,1.40
2019-04-04T00:15:59.370Z,2.60
2019-04-04T00:20:50.784Z,2.00
2019-04-04T00:25:42.152Z,1.70
2019-04-04T00:30:33.573Z,1.80
2019-04-04T00:35:24.933Z,1.90
2019-04-04T00:40:16.323Z,1.90
2019-04-04T00:45:07.767Z,1.90
2019-04-04T00:49:59.114Z,2.20
2019-04-04T00:54:52.793Z,3.00
2019-04-04T00:59:44.214Z,2.50
2019-04-04T01:04:35.638Z,4.00
2019-04-04T01:09:26.969Z,3.70
2019-04-04T01:14:18.428Z,4.10
2019-04-04T01:19:10.359Z,5.10
2019-04-04T01:24:01.282Z,4.00
2019-04-04T01:28:52.693Z,4.30
2019-04-04T01:33:46.383Z,4.00
2019-04-04T01:38:40.042Z,4.00
2019-04-04T01:43:31.430Z,3.90
2019-04-04T01:48:25.049Z,4.70
2019-04-04T01:53:18.741Z,3.30
2019-04-04T01:58:10.696Z,3.40
2019-04-04T02:03:01.535Z,3.10
2019-04-04T02:07:52.833Z,4.60
2019-04-04T02:12:46.573Z,4.50
2019-04-04T02:17:42.470Z,2.70
2019-04-04T02:22:33.911Z,4.20
2019-04-04T02:27:25.273Z,4.00
2019-04-04T02:32:18.883Z,4.10
2019-04-04T02:37:10.300Z,3.10
2019-04-04T02:42:03.972Z,6.10
2019-04-04T02:46:57.622Z,4.90
2019-04-04T02:51:48.967Z,5.00
2019-04-04T02:56:40.363Z,4.50
2019-04-04T03:01:33.054Z,5.30
2019-04-04T03:06:25.588Z,6.00
2019-04-04T03:11:21.911Z,7.90
2019-04-04T03:16:12.852Z,7.40
2019-04-04T03:21:06.575Z,8.00
2019-04-04T03:25:57.988Z,6.80
2019-04-04T03:30:58.021Z,7.50
2019-04-04T03:35:40.733Z,7.10
2019-04-04T03:40:32.101Z,8.20
2019-04-04T03:45:25.917Z,9.00
2019-04-04T03:50:14.864Z,9.50
2019-04-04T03:55:06.256Z,10.30
2019-04-04T03:59:57.638Z,9.70
2019-04-04T04:04:49.073Z,9.50
2019-04-04T04:09:40.413Z,8.90
2019-04-04T04:14:31.842Z,9.80
2019-04-04T04:19:24.307Z,9.90
2019-04-04T04:24:14.642Z,9.30
2019-04-04T04:29:05.979Z,10.40
2019-04-04T04:34:00.434Z,11.60
2019-04-04T04:38:48.782Z,14.10
2019-04-04T04:43:40.197Z,14.40
2019-04-04T04:48:31.927Z,15.10
2019-04-04T04:53:23.052Z,16.80
2019-04-04T04:58:14.317Z,16.70
2019-04-04T05:03:05.710Z,15.20
2019-04-04T05:07:57.127Z,16.60
2019-04-04T05:12:48.577Z,14.20
2019-04-04T05:17:39.983Z,15.40
2019-04-04T05:22:31.303Z,15.90
2019-04-04T05:27:22.613Z,15.10
2019-04-04T05:32:14.098Z,15.20
2019-04-04T05:37:07.183Z,16.40
2019-04-04T05:41:58.032Z,16.80
2019-04-04T05:46:51.030Z,16.40
2019-04-04T05:51:39.655Z,15.00
2019-04-04T05:56:31.062Z,13.30
2019-04-04T06:01:22.441Z,14.20
2019-04-04T06:06:13.810Z,14.30
2019-04-04T06:11:05.237Z,15.40
2019-04-04T06:15:56.597Z,13.00
2019-04-04T06:20:48.502Z,12.60
2019-04-04T06:25:39.382Z,11.80
2019-04-04T06:30:42.462Z,12.10
2019-04-04T06:35:22.109Z,13.20
2019-04-04T06:40:13.505Z,11.40
2019-04-04T06:45:04.937Z,13.00
2019-04-04T06:49:56.428Z,14.20
2019-04-04T06:54:47.838Z,16.70
2019-04-04T06:59:42.880Z,14.70
2019-04-04T07:04:31.451Z,14.90
2019-04-04T07:09:22.009Z,13.80
2019-04-04T07:14:13.428Z,15.60
2019-04-04T07:19:07.669Z,13.10
2019-04-04T07:23:58.903Z,13.20
2019-04-04T07:28:49.563Z,12.50
2019-04-04T07:33:42.561Z,14.50
2019-04-04T07:38:30.455Z,15.70
2019-04-04T07:43:21.841Z,47.00
2019-04-04T07:48:13.541Z,15.40
2019-04-04T07:53:05.166Z,17.60
2019-04-04T07:57:56.388Z,17.00
2019-04-04T08:02:47.770Z,14.60
2019-04-04T08:07:39.113Z,16.70
2019-04-04T08:12:30.503Z,16.60
2019-04-04T08:17:21.941Z,16.40
2019-04-04T08:22:13.338Z,16.70
2019-04-04T08:27:04.743Z,16.30
2019-04-04T08:31:56.079Z,16.60
2019-04-04T08:36:47.484Z,16.70
2019-04-04T08:41:38.914Z,15.70
2019-04-04T08:46:30.307Z,16.00
2019-04-04T08:51:21.620Z,16.40
2019-04-04T08:56:13.090Z,15.70
2019-04-04T09:01:04.393Z,15.10
2019-04-04T09:05:55.838Z,15.60
2019-04-04T09:10:47.177Z,15.30
2019-04-04T09:15:38.581Z,14.90
2019-04-04T09:20:32.360Z,15.30
2019-04-04T09:25:30.538Z,11.90
2019-04-04T09:30:21.901Z,12.00
2019-04-04T09:35:15.590Z,12.50
2019-04-04T09:40:06.957Z,12.70
2019-04-04T09:45:02.883Z,12.50
2019-04-04T09:49:54.285Z,12.30
2019-04-04T09:50:43.855Z,10.90
2019-04-04T09:55:37.633Z,11.10
2019-04-04T10:00:29.002Z,19.50
2019-04-04T10:05:25.014Z,8.40
2019-04-04T10:10:16.353Z,9.40
2019-04-04T10:15:07.833Z,11.90
2019-04-04T10:19:59.190Z,10.10
2019-04-04T10:24:50.605Z,12.30
2019-04-04T10:29:44.204Z,10.30
2019-04-04T10:34:35.675Z,10.10
2019-04-04T10:39:28.929Z,8.70
2019-04-04T10:44:18.462Z,7.90
2019-04-04T10:49:09.778Z,5.10
2019-04-04T10:54:01.183Z,5.00
2019-04-04T10:58:52.545Z,4.70
2019-04-04T11:03:43.974Z,5.20
2019-04-04T11:08:35.351Z,4.50
2019-04-04T11:13:33.158Z,5.00
2019-04-04T11:18:18.148Z,4.20
2019-04-04T11:23:09.516Z,5.70
2019-04-04T11:28:00.943Z,8.10
2019-04-04T11:32:52.334Z,4.90
2019-04-04T11:37:43.726Z,6.60
2019-04-04T11:42:35.152Z,4.70
2019-04-04T11:47:26.557Z,5.80
2019-04-04T11:52:17.925Z,5.90
2019-04-04T11:57:09.286Z,5.40
2019-04-04T12:02:00.748Z,5.90
2019-04-04T12:06:54.459Z,4.90
2019-04-04T12:11:48.058Z,4.40
2019-04-04T12:16:39.429Z,4.50
2019-04-04T12:21:30.873Z,4.00
2019-04-04T12:26:22.271Z,3.90
2019-04-04T12:31:13.660Z,2.60
2019-04-04T12:36:07.337Z,4.50
2019-04-04T12:41:01.021Z,5.10
2019-04-04T12:45:52.805Z,3.70
2019-04-04T12:50:43.831Z,4.20
2019-04-04T12:55:37.517Z,3.90
2019-04-04T13:00:28.840Z,5.10
2019-04-04T13:05:20.304Z,5.10
2019-04-04T13:10:12.198Z,5.40
2019-04-04T13:15:03.082Z,5.80
2019-04-04T13:19:54.455Z,3.60
2019-04-04T13:24:45.947Z,3.90
2019-04-04T13:29:37.279Z,4.50
2019-04-04T13:34:28.718Z,5.30
2019-04-04T13:39:20.274Z,3.60
2019-04-04T13:44:11.524Z,3.40
2019-04-04T13:49:02.851Z,6.10
2019-04-04T13:53:57.084Z,5.10
2019-04-04T13:58:47.895Z,3.00
2019-04-04T14:03:39.426Z,17.70
2019-04-04T14:08:33.043Z,5.60
2019-04-04T14:13:26.121Z,4.50
2019-04-04T14:18:15.827Z,3.50
2019-04-04T14:23:07.302Z,3.10
2019-04-04T14:27:58.693Z,2.60
2019-04-04T14:32:50.049Z,2.70
2019-04-04T14:37:41.413Z,3.30
2019-04-04T14:42:32.862Z,2.60
2019-04-04T14:47:24.236Z,3.90
2019-04-04T14:52:19.303Z,3.20
2019-04-04T14:57:07.037Z,2.80
2019-04-04T15:01:58.435Z,2.60
2019-04-04T15:06:49.822Z,3.90
2019-04-04T15:11:41.212Z,2.20
2019-04-04T15:16:32.605Z,2.50
2019-04-04T15:21:26.295Z,2.80
2019-04-04T15:26:19.895Z,4.10
2019-04-04T15:31:11.458Z,3.50
2019-04-04T15:36:05.167Z,3.80
2019-04-04T15:40:58.758Z,2.50
2019-04-04T15:45:50.199Z,2.10
2019-04-04T15:50:41.504Z,2.50
2019-04-04T15:55:35.261Z,3.40
2019-04-04T16:00:26.616Z,2.80
2019-04-04T16:05:18.064Z,1.80
2019-04-04T16:10:09.447Z,2.30
2019-04-04T16:15:03.119Z,1.90
2019-04-04T16:19:54.501Z,1.90
2019-04-04T16:24:45.934Z,2.50
2019-04-04T16:29:37.279Z,1.90
2019-04-04T16:34:28.698Z,4.10
2019-04-04T16:39:20.068Z,3.60
2019-04-04T16:44:11.474Z,2.90
2019-04-04T16:49:02.877Z,2.20
2019-04-04T16:53:54.274Z,3.40
2019-04-04T16:58:45.654Z,3.10
2019-04-04T17:03:37.022Z,1.80
2019-04-04T17:08:28.477Z,1.90
2019-04-04T17:13:19.852Z,1.90
2019-04-04T17:18:11.312Z,1.90
2019-04-04T17:23:02.678Z,1.70
2019-04-04T17:27:56.475Z,1.80
2019-04-04T17:32:49.339Z,2.40
2019-04-04T17:37:39.309Z,2.40
2019-04-04T17:42:32.260Z,2.60
2019-04-04T17:47:22.516Z,2.30
2019-04-04T17:52:13.765Z,2.30
2019-04-04T17:57:07.374Z,3.10
2019-04-04T18:02:00.822Z,2.00
2019-04-04T18:06:52.285Z,2.10
2019-04-04T18:11:43.669Z,3.00
2019-04-04T18:16:35.028Z,3.30
2019-04-04T18:21:26.546Z,2.30
2019-04-04T18:26:17.835Z,2.20
2019-04-04T18:31:09.261Z,2.10
2019-04-04T18:36:00.635Z,4.20
2019-04-04T18:40:54.348Z,4.20
2019-04-04T18:45:45.669Z,3.70
2019-04-04T18:50:37.098Z,4.30
2019-04-04T18:55:28.445Z,5.60
2019-04-04T19:00:19.899Z,4.90
2019-04-04T19:05:13.459Z,5.00
2019-04-04T19:10:04.870Z,5.80
2019-04-04T19:14:56.294Z,8.90
2019-04-04T19:19:49.925Z,6.60
2019-04-04T19:24:41.321Z,5.90
2019-04-04T19:29:32.751Z,6.10
2019-04-04T19:34:24.112Z,8.80
2019-04-04T19:39:15.498Z,6.20
2019-04-04T19:44:06.955Z,6.40
2019-04-04T19:48:58.334Z,5.10
2019-04-04T19:53:49.743Z,5.10
2019-04-04T19:58:41.140Z,6.00
2019-04-04T20:03:34.890Z,6.20
2019-04-04T20:08:28.453Z,7.90
2019-04-04T20:13:30.144Z,6.50
2019-04-04T20:18:11.323Z,6.50
2019-04-04T20:23:04.931Z,6.80
2019-04-04T20:27:56.384Z,6.80
2019-04-04T20:32:47.805Z,7.60
2019-04-04T20:37:39.180Z,7.50
2019-04-04T20:42:32.864Z,7.40
2019-04-04T20:47:24.278Z,7.30
2019-04-04T20:52:17.932Z,7.80
2019-04-04T20:57:11.577Z,6.70
2019-04-04T21:02:02.939Z,8.50
2019-04-04T21:07:01.211Z,7.70
2019-04-04T21:11:54.917Z,8.10
2019-04-04T21:16:48.521Z,8.50
2019-04-04T21:21:39.944Z,8.20
2019-04-04T21:26:31.332Z,9.50
2019-04-04T21:31:22.703Z,8.70
2019-04-04T21:36:14.091Z,8.50
2019-04-04T21:41:05.490Z,8.70
2019-04-04T21:45:56.944Z,8.90
2019-04-04T21:50:50.581Z,9.40
2019-04-04T21:55:41.971Z,10.40
2019-04-04T22:00:35.584Z,11.60
2019-04-04T22:05:27.085Z,11.00
2019-04-04T22:10:18.400Z,10.80
2019-04-04T22:15:09.804Z,11.00
2019-04-04T22:20:01.225Z,11.70
2019-04-04T22:24:52.630Z,9.80
2019-04-04T22:29:46.355Z,10.80
2019-04-04T22:34:37.796Z,10.60
2019-04-04T22:39:29.154Z,9.90
2019-04-04T22:44:20.568Z,12.70
2019-04-04T22:49:12.000Z,15.20
2019-04-04T22:54:03.367Z,10.80
2019-04-04T22:58:57.117Z,15.00
2019-04-04T23:03:50.786Z,15.50
2019-04-04T23:08:44.430Z,12.40
2019-04-04T23:13:35.800Z,10.90
2019-04-04T23:18:27.212Z,10.70
2019-04-04T23:23:18.554Z,10.80
2019-04-04T23:28:09.981Z,11.70
2019-04-04T23:33:01.337Z,10.40
2019-04-04T23:37:52.790Z,13.10
2019-04-04T23:42:44.135Z,10.80
2019-04-04T23:47:42.399Z,8.60
2019-04-04T23:52:26.966Z,9.70
2019-04-04T23:57:18.345Z,10.50
